Time;durP1;ratioP1;P1;durP2;ratioP2;P2;SDS_P1;SDS_P2;PMS_P1;PMS_P2;Temp;Humidity;BMP_temperature;BMP_pressure;BME280_temperature;BME280_humidity;BME280_pressure;Samples;Min_cycle;Max_cycle;Signal;HPM_P1;HPM_P2
2022/07/18 00:02:23;;;;;;;1.30;1.20;;;;;;;;;;5014094;28;20199;-73
2022/07/18 00:04:49;;;;;;;1.90;1.60;;;;;;;;;;5013992;28;20199;-74
2022/07/18 00:07:16;;;;;;;1.70;1.60;;;;;;;;;;4994753;28;20203;-74
2022/07/18 00:09:44;;;;;;;1.13;1.07;;;;;;;;;;4995355;28;20196;-74
2022/07/18 00:12:12;;;;;;;2.27;1.50;;;;;;;;;;5013001;28;20237;-74
2022/07/18 00:14:39;;;;;;;4.50;1.77;;;;;;;;;;4996101;28;20202;-74
2022/07/18 00:17:08;;;;;;;9.67;1.70;;;;;;;;;;5013741;28;20603;-74
2022/07/18 00:19:36;;;;;;;1.83;1.50;;;;;;;;;;5013374;28;20709;-74
2022/07/18 00:22:04;;;;;;;2.17;1.57;;;;;;;;;;5013650;28;20577;-74
2022/07/18 00:24:32;;;;;;;1.60;1.50;;;;;;;;;;5012084;28;20572;-74
2022/07/18 00:26:59;;;;;;;1.97;1.83;;;;;;;;;;4995753;28;20674;-74
2022/07/18 00:29:27;;;;;;;4.13;1.73;;;;;;;;;;4995059;28;20199;-75
2022/07/18 00:31:54;;;;;;;1.40;1.30;;;;;;;;;;5013236;28;20203;-74
2022/07/18 00:34:22;;;;;;;3.53;1.83;;;;;;;;;;5013093;28;20258;-73
2022/07/18 00:36:49;;;;;;;11.83;2.60;;;;;;;;;;4995141;28;20203;-74
2022/07/18 00:39:16;;;;;;;5.20;1.57;;;;;;;;;;5013281;28;20297;-74
2022/07/18 00:41:47;;;;;;;1.40;1.20;;;;;;;;;;5011879;28;20199;-74
2022/07/18 00:44:18;;;;;;;1.87;1.20;;;;;;;;;;4996672;28;20290;-74
2022/07/18 00:46:45;;;;;;;2.13;1.50;;;;;;;;;;4994418;28;20211;-73
2022/07/18 00:49:12;;;;;;;1.70;1.60;;;;;;;;;;5011802;28;20207;-74
2022/07/18 00:51:41;;;;;;;1.53;1.43;;;;;;;;;;5012745;28;20203;-74
2022/07/18 00:54:08;;;;;;;2.10;1.60;;;;;;;;;;5012040;28;20199;-73
2022/07/18 00:56:35;;;;;;;5.80;1.50;;;;;;;;;;5013752;28;20207;-74
2022/07/18 00:59:02;;;;;;;5.33;1.50;;;;;;;;;;4995355;28;20203;-73
2022/07/18 01:01:43;;;;;;;2.60;1.27;;;;;;;;;;5013845;28;20277;-73
2022/07/18 01:04:10;;;;;;;1.27;1.17;;;;;;;;;;5012307;28;20199;-73
2022/07/18 01:06:37;;;;;;;1.33;1.30;;;;;;;;;;5012988;28;20207;-73
2022/07/18 01:09:06;;;;;;;1.47;1.37;;;;;;;;;;5011315;28;20203;-74
2022/07/18 01:11:33;;;;;;;2.60;1.50;;;;;;;;;;4995259;28;20313;-73
2022/07/18 01:14:01;;;;;;;1.73;1.63;;;;;;;;;;5011390;28;20211;-74
2022/07/18 01:16:28;;;;;;;6.37;1.60;;;;;;;;;;5011151;28;20203;-74
2022/07/18 01:18:55;;;;;;;2.00;1.80;;;;;;;;;;5012690;28;20210;-73
2022/07/18 01:21:24;;;;;;;2.23;1.60;;;;;;;;;;5012138;28;20270;-74
2022/07/18 01:23:52;;;;;;;4.57;1.77;;;;;;;;;;4994839;28;20203;-73
2022/07/18 01:26:19;;;;;;;1.60;1.50;;;;;;;;;;5011537;28;20218;-73
2022/07/18 01:28:48;;;;;;;1.70;1.60;;;;;;;;;;5011495;28;20614;-73
2022/07/18 01:31:16;;;;;;;4.60;1.80;;;;;;;;;;4979767;28;20203;-73
2022/07/18 01:33:42;;;;;;;1.37;1.27;;;;;;;;;;5010524;28;20257;-73
2022/07/18 01:36:10;;;;;;;1.70;1.50;;;;;;;;;;5012084;28;20199;-73
2022/07/18 01:38:39;;;;;;;2.10;1.40;;;;;;;;;;4994544;28;20257;-73
2022/07/18 01:41:06;;;;;;;2.50;1.30;;;;;;;;;;5012380;28;20234;-73
2022/07/18 01:43:34;;;;;;;2.63;1.37;;;;;;;;;;5012441;28;20238;-73
2022/07/18 01:46:01;;;;;;;1.47;1.37;;;;;;;;;;5010532;28;20218;-73
2022/07/18 01:48:28;;;;;;;2.00;1.70;;;;;;;;;;5011597;28;20203;-73
2022/07/18 01:50:55;;;;;;;2.13;1.40;;;;;;;;;;5012301;28;20633;-73
2022/07/18 01:53:24;;;;;;;1.40;1.30;;;;;;;;;;5012025;28;20214;-73
2022/07/18 01:55:52;;;;;;;1.27;1.27;;;;;;;;;;5010726;28;20203;-73
2022/07/18 01:58:19;;;;;;;3.20;1.47;;;;;;;;;;5011825;28;20666;-73
2022/07/18 02:00:46;;;;;;;1.73;1.47;;;;;;;;;;5010494;28;20253;-73
2022/07/18 02:03:13;;;;;;;4.00;1.30;;;;;;;;;;4995071;28;20637;-73
2022/07/18 02:05:40;;;;;;;3.37;1.17;;;;;;;;;;4993434;28;20206;-73
2022/07/18 02:08:07;;;;;;;1.60;1.50;;;;;;;;;;4993601;28;20199;-73
2022/07/18 02:10:34;;;;;;;4.13;1.30;;;;;;;;;;5012253;28;20203;-73
2022/07/18 02:13:03;;;;;;;2.80;1.30;;;;;;;;;;5011877;28;20227;-73
2022/07/18 02:15:30;;;;;;;1.27;1.17;;;;;;;;;;5011947;28;20203;-73
2022/07/18 02:17:57;;;;;;;2.40;1.20;;;;;;;;;;5011425;28;20266;-73
2022/07/18 02:20:24;;;;;;;1.50;1.30;;;;;;;;;;5011409;28;20227;-73
2022/07/18 02:22:51;;;;;;;1.30;1.20;;;;;;;;;;5010120;28;20203;-73
2022/07/18 02:25:18;;;;;;;7.13;1.60;;;;;;;;;;5011466;28;20211;-73
2022/07/18 02:27:45;;;;;;;1.70;1.60;;;;;;;;;;4994290;28;20203;-73
2022/07/18 02:30:13;;;;;;;1.37;1.27;;;;;;;;;;5011542;28;20203;-73
2022/07/18 02:32:41;;;;;;;1.40;1.23;;;;;;;;;;5010388;28;20199;-73
2022/07/18 02:35:09;;;;;;;2.23;1.60;;;;;;;;;;4993711;28;20594;-73
2022/07/18 02:37:37;;;;;;;7.07;3.27;;;;;;;;;;5012384;28;20203;-73
2022/07/18 02:40:07;;;;;;;4.47;1.50;;;;;;;;;;5011744;28;20310;-73
2022/07/18 02:42:35;;;;;;;3.00;1.50;;;;;;;;;;5010273;28;20211;-73
2022/07/18 02:45:02;;;;;;;3.63;1.40;;;;;;;;;;5011467;28;20208;-73
2022/07/18 02:47:30;;;;;;;2.40;1.37;;;;;;;;;;5010222;28;20210;-73
2022/07/18 02:49:57;;;;;;;1.27;1.20;;;;;;;;;;5011501;28;20196;-73
2022/07/18 02:52:24;;;;;;;2.90;0.97;;;;;;;;;;4994194;28;20666;-73
2022/07/18 02:54:51;;;;;;;5.80;1.77;;;;;;;;;;5013178;28;20211;-73
2022/07/18 02:57:17;;;;;;;2.90;1.57;;;;;;;;;;5014343;28;20700;-73
2022/07/18 02:59:45;;;;;;;1.77;1.53;;;;;;;;;;5014309;28;20577;-72
2022/07/18 03:02:12;;;;;;;2.27;2.00;;;;;;;;;;5014006;28;20203;-74
2022/07/18 03:04:40;;;;;;;2.40;1.50;;;;;;;;;;4996991;28;20709;-74
2022/07/18 03:07:07;;;;;;;1.90;1.53;;;;;;;;;;5014119;28;20586;-74
2022/07/18 03:09:34;;;;;;;7.37;2.23;;;;;;;;;;4996970;28;20582;-74
2022/07/18 03:12:01;;;;;;;6.13;1.57;;;;;;;;;;5013887;28;20234;-74
2022/07/18 03:14:28;;;;;;;4.00;1.90;;;;;;;;;;5014309;28;20199;-74
2022/07/18 03:16:55;;;;;;;2.73;1.47;;;;;;;;;;5014973;28;20210;-74
2022/07/18 03:19:22;;;;;;;9.27;2.03;;;;;;;;;;4997325;28;20207;-74
2022/07/18 03:21:50;;;;;;;1.50;1.40;;;;;;;;;;5014584;28;20607;-74
2022/07/18 03:24:17;;;;;;;6.10;2.10;;;;;;;;;;4997337;28;20207;-74
2022/07/18 03:26:44;;;;;;;8.80;2.10;;;;;;;;;;5013978;28;20604;-74
2022/07/18 03:29:12;;;;;;;2.87;1.80;;;;;;;;;;5014334;28;20253;-74
2022/07/18 03:31:39;;;;;;;1.87;1.60;;;;;;;;;;5014711;28;20199;-74
2022/07/18 03:34:06;;;;;;;3.37;1.60;;;;;;;;;;5014218;28;20210;-75
2022/07/18 03:36:33;;;;;;;3.20;1.53;;;;;;;;;;5013488;28;20195;-75
2022/07/18 03:39:01;;;;;;;4.40;1.90;;;;;;;;;;4997025;28;20206;-75
2022/07/18 03:41:28;;;;;;;6.10;1.60;;;;;;;;;;4996261;28;20227;-75
2022/07/18 03:43:56;;;;;;;6.77;1.70;;;;;;;;;;4996685;28;20203;-74
2022/07/18 03:46:23;;;;;;;6.37;1.40;;;;;;;;;;5014404;28;20581;-75
2022/07/18 03:48:50;;;;;;;4.77;1.80;;;;;;;;;;5012650;28;20242;-74
2022/07/18 03:51:17;;;;;;;1.60;1.40;;;;;;;;;;4996078;28;20214;-74
2022/07/18 03:53:44;;;;;;;3.57;1.93;;;;;;;;;;4995939;28;20200;-73
2022/07/18 03:56:12;;;;;;;1.50;1.40;;;;;;;;;;5014514;28;20203;-72
2022/07/18 03:58:39;;;;;;;1.70;1.50;;;;;;;;;;5014628;28;20206;-72
2022/07/18 04:01:06;;;;;;;1.60;1.50;;;;;;;;;;5013919;28;20226;-72
2022/07/18 04:03:33;;;;;;;1.40;1.30;;;;;;;;;;5012638;28;20199;-72
2022/07/18 04:06:00;;;;;;;1.83;1.73;;;;;;;;;;4995343;28;20203;-72
2022/07/18 04:08:27;;;;;;;2.10;1.63;;;;;;;;;;4995102;28;20338;-72
2022/07/18 04:10:54;;;;;;;2.97;1.80;;;;;;;;;;5012421;28;20203;-78
2022/07/18 04:13:22;;;;;;;1.60;1.50;;;;;;;;;;5013235;28;20211;-78
2022/07/18 04:15:50;;;;;;;3.30;1.83;;;;;;;;;;5013678;28;20204;-78
2022/07/18 04:18:17;;;;;;;3.80;2.33;;;;;;;;;;4994583;28;20210;-77
2022/07/18 04:20:44;;;;;;;1.30;1.10;;;;;;;;;;4994609;28;20215;-77
2022/07/18 04:23:12;;;;;;;5.17;1.97;;;;;;;;;;4979702;28;20203;-77
2022/07/18 04:25:40;;;;;;;5.70;1.80;;;;;;;;;;4995518;28;20199;-77
2022/07/18 04:28:07;;;;;;;4.70;1.27;;;;;;;;;;5012633;28;20199;-77
2022/07/18 04:30:36;;;;;;;3.63;1.83;;;;;;;;;;4996295;28;20203;-78
2022/07/18 04:33:04;;;;;;;21.17;4.47;;;;;;;;;;5013020;28;20255;-78
2022/07/18 04:35:32;;;;;;;11.87;3.00;;;;;;;;;;5011303;28;20203;-78
2022/07/18 04:37:58;;;;;;;11.90;2.17;;;;;;;;;;5011576;28;20202;-77
2022/07/18 04:40:25;;;;;;;2.80;1.70;;;;;;;;;;5011422;28;20226;-78
2022/07/18 04:42:52;;;;;;;2.50;1.43;;;;;;;;;;5012374;28;20565;-77
2022/07/18 04:45:21;;;;;;;2.50;1.37;;;;;;;;;;5012246;28;20203;-78
2022/07/18 04:47:50;;;;;;;1.57;1.33;;;;;;;;;;5012091;28;20196;-78
2022/07/18 04:50:18;;;;;;;1.23;1.13;;;;;;;;;;5012075;28;20261;-78
2022/07/18 04:52:46;;;;;;;5.50;1.63;;;;;;;;;;5012248;28;20206;-77
2022/07/18 04:55:15;;;;;;;1.57;1.37;;;;;;;;;;5012208;28;20214;-78
2022/07/18 04:57:41;;;;;;;2.47;1.20;;;;;;;;;;5012694;28;20231;-78
2022/07/18 05:00:10;;;;;;;1.83;1.60;;;;;;;;;;5013139;28;20199;-77
2022/07/18 05:02:40;;;;;;;4.87;1.73;;;;;;;;;;5013420;28;20203;-77
2022/07/18 05:05:09;;;;;;;1.53;1.40;;;;;;;;;;5010911;28;20207;-78
2022/07/18 05:07:36;;;;;;;5.23;2.10;;;;;;;;;;5012416;28;20205;-77
2022/07/18 05:10:07;;;;;;;2.87;1.40;;;;;;;;;;5011748;28;20632;-77
2022/07/18 05:12:34;;;;;;;3.93;1.80;;;;;;;;;;5012039;28;20231;-77
2022/07/18 05:15:01;;;;;;;8.43;2.20;;;;;;;;;;5011941;28;20207;-77
2022/07/18 05:17:28;;;;;;;1.40;1.30;;;;;;;;;;5011227;28;20342;-77
2022/07/18 05:19:54;;;;;;;3.20;1.50;;;;;;;;;;5011971;28;20231;-78
2022/07/18 05:22:23;;;;;;;5.50;1.80;;;;;;;;;;5011232;28;20320;-78
2022/07/18 05:24:50;;;;;;;3.07;1.50;;;;;;;;;;5012031;28;20206;-77
2022/07/18 05:27:16;;;;;;;1.67;1.57;;;;;;;;;;5011774;28;20195;-76
2022/07/18 05:29:43;;;;;;;1.60;1.50;;;;;;;;;;5011721;28;20207;-76
2022/07/18 05:32:11;;;;;;;1.47;1.37;;;;;;;;;;5011554;28;20222;-77
2022/07/18 05:34:38;;;;;;;2.23;1.33;;;;;;;;;;5011759;28;20199;-77
2022/07/18 05:37:04;;;;;;;3.57;1.70;;;;;;;;;;5010898;28;20211;-77
2022/07/18 05:39:33;;;;;;;4.40;1.53;;;;;;;;;;5011324;28;20199;-77
2022/07/18 05:41:59;;;;;;;3.13;1.40;;;;;;;;;;5011387;28;20226;-77
2022/07/18 05:44:26;;;;;;;1.73;1.40;;;;;;;;;;5005240;28;20226;-77
2022/07/18 05:46:53;;;;;;;1.13;1.13;;;;;;;;;;5011152;28;20206;-77
2022/07/18 05:49:20;;;;;;;1.67;1.47;;;;;;;;;;5011485;28;20269;-76
2022/07/18 05:51:47;;;;;;;3.60;1.43;;;;;;;;;;5011330;28;20207;-77
2022/07/18 05:54:18;;;;;;;5.70;1.73;;;;;;;;;;5011258;28;20576;-77
2022/07/18 05:56:48;;;;;;;2.67;1.73;;;;;;;;;;5011589;28;20195;-77
2022/07/18 05:59:14;;;;;;;2.70;1.43;;;;;;;;;;5011388;28;20282;-76
2022/07/18 06:01:41;;;;;;;3.17;1.70;;;;;;;;;;5011219;28;20226;-75
2022/07/18 06:04:08;;;;;;;3.17;1.60;;;;;;;;;;5010950;28;20230;-78
2022/07/18 06:06:35;;;;;;;1.53;1.40;;;;;;;;;;5011211;28;20700;-77
2022/07/18 06:09:02;;;;;;;10.07;1.77;;;;;;;;;;5011597;28;20567;-77
2022/07/18 06:11:28;;;;;;;18.77;3.97;;;;;;;;;;5010798;28;20230;-77
2022/07/18 06:13:57;;;;;;;13.93;3.03;;;;;;;;;;5010871;28;20187;-77
2022/07/18 06:16:23;;;;;;;5.33;2.10;;;;;;;;;;5009338;28;20563;-77
2022/07/18 06:18:50;;;;;;;5.20;2.17;;;;;;;;;;5010184;28;20195;-77
2022/07/18 06:21:17;;;;;;;5.70;1.90;;;;;;;;;;5010181;28;20238;-77
2022/07/18 06:23:44;;;;;;;6.67;2.00;;;;;;;;;;5010159;28;20184;-77
2022/07/18 06:26:11;;;;;;;3.57;1.93;;;;;;;;;;5009680;28;20253;-77
2022/07/18 06:28:39;;;;;;;6.90;2.27;;;;;;;;;;5011880;28;20565;-79
2022/07/18 06:31:07;;;;;;;4.17;1.90;;;;;;;;;;5014421;28;20199;-77
2022/07/18 06:33:34;;;;;;;4.70;2.10;;;;;;;;;;5014029;28;20681;-75
2022/07/18 06:36:00;;;;;;;2.90;2.07;;;;;;;;;;5014427;28;20628;-78
2022/07/18 06:38:27;;;;;;;6.73;2.17;;;;;;;;;;5013992;28;20195;-81
2022/07/18 06:40:54;;;;;;;5.90;2.17;;;;;;;;;;5014689;28;20203;-79
2022/07/18 06:43:21;;;;;;;3.10;2.37;;;;;;;;;;5014032;28;20200;-76
2022/07/18 06:45:51;;;;;;;2.27;2.00;;;;;;;;;;5015243;28;20191;-76
2022/07/18 06:48:20;;;;;;;2.57;2.07;;;;;;;;;;5014153;28;20199;-76
2022/07/18 06:50:46;;;;;;;2.77;2.43;;;;;;;;;;5014483;28;20206;-77
2022/07/18 06:53:13;;;;;;;2.53;2.27;;;;;;;;;;5014072;28;20199;-77
2022/07/18 06:55:40;;;;;;;2.53;2.33;;;;;;;;;;5014644;28;20211;-77
2022/07/18 06:58:07;;;;;;;4.57;2.73;;;;;;;;;;5013132;28;20199;-78
2022/07/18 07:00:33;;;;;;;4.00;2.30;;;;;;;;;;5014126;28;20203;-76
2022/07/18 07:03:00;;;;;;;3.40;2.67;;;;;;;;;;5013047;28;20214;-80
2022/07/18 07:05:28;;;;;;;3.10;2.30;;;;;;;;;;5013928;28;20595;-77
2022/07/18 07:07:55;;;;;;;4.90;2.20;;;;;;;;;;5013564;28;20659;-76
2022/07/18 07:10:22;;;;;;;8.03;3.10;;;;;;;;;;5013539;28;20191;-76
2022/07/18 07:12:50;;;;;;;13.93;2.73;;;;;;;;;;5014366;28;20224;-76
2022/07/18 07:15:19;;;;;;;3.43;2.93;;;;;;;;;;5014122;28;20211;-77
2022/07/18 07:17:46;;;;;;;2.60;2.40;;;;;;;;;;5013889;28;20591;-76
2022/07/18 07:20:14;;;;;;;12.73;3.63;;;;;;;;;;5012886;28;20196;-77
2022/07/18 07:22:46;;;;;;;2.67;2.30;;;;;;;;;;5011226;28;20223;-77
2022/07/18 07:25:13;;;;;;;3.97;2.37;;;;;;;;;;5012956;28;20199;-77
2022/07/18 07:27:40;;;;;;;4.00;2.10;;;;;;;;;;5013292;28;20282;-76
2022/07/18 07:30:08;;;;;;;3.43;2.70;;;;;;;;;;5012372;28;20207;-77
2022/07/18 07:32:36;;;;;;;3.50;2.40;;;;;;;;;;5012985;28;20243;-76
2022/07/18 07:35:06;;;;;;;7.63;2.07;;;;;;;;;;5012969;28;20286;-77
2022/07/18 07:37:33;;;;;;;3.10;2.10;;;;;;;;;;5013022;28;20295;-76
2022/07/18 07:40:01;;;;;;;3.07;2.00;;;;;;;;;;5012248;28;20203;-76
2022/07/18 07:42:28;;;;;;;3.03;2.43;;;;;;;;;;5011646;28;20623;-76
2022/07/18 07:44:54;;;;;;;7.60;2.23;;;;;;;;;;5013023;28;20199;-76
2022/07/18 07:47:21;;;;;;;1.87;1.77;;;;;;;;;;5012280;28;20200;-77
2022/07/18 07:49:48;;;;;;;1.90;1.70;;;;;;;;;;5012656;28;20204;-76
2022/07/18 07:52:17;;;;;;;5.30;2.37;;;;;;;;;;5012411;28;20697;-76
2022/07/18 07:54:44;;;;;;;2.07;1.87;;;;;;;;;;5012818;28;20199;-77
2022/07/18 07:57:12;;;;;;;3.43;1.93;;;;;;;;;;5012837;28;20195;-80
2022/07/18 07:59:39;;;;;;;3.27;2.30;;;;;;;;;;5013059;28;20203;-78
2022/07/18 08:02:06;;;;;;;2.23;2.10;;;;;;;;;;5012744;28;20215;-77
2022/07/18 08:04:33;;;;;;;2.47;1.90;;;;;;;;;;5012981;28;20200;-76
2022/07/18 08:06:59;;;;;;;2.43;2.23;;;;;;;;;;5012511;28;20203;-77
2022/07/18 08:09:26;;;;;;;3.53;2.30;;;;;;;;;;5012946;28;20203;-77
2022/07/18 08:11:53;;;;;;;5.57;2.63;;;;;;;;;;5012655;28;20223;-77
2022/07/18 08:14:21;;;;;;;1.73;1.63;;;;;;;;;;5012535;28;20203;-76
2022/07/18 08:16:48;;;;;;;2.87;2.40;;;;;;;;;;5012730;28;20203;-76
2022/07/18 08:19:15;;;;;;;3.07;2.10;;;;;;;;;;5012722;28;20199;-79
2022/07/18 08:21:42;;;;;;;3.10;2.57;;;;;;;;;;5012791;28;20285;-76
2022/07/18 08:24:08;;;;;;;2.40;2.20;;;;;;;;;;5012646;28;20204;-76
2022/07/18 08:26:38;;;;;;;4.97;2.70;;;;;;;;;;5012268;28;20203;-77
2022/07/18 08:29:05;;;;;;;8.13;2.60;;;;;;;;;;5012257;28;20195;-77
2022/07/18 08:31:34;;;;;;;3.77;2.53;;;;;;;;;;4994671;28;20207;-77
2022/07/18 08:34:01;;;;;;;4.43;2.60;;;;;;;;;;5012529;28;20199;-77
2022/07/18 08:36:27;;;;;;;4.23;2.53;;;;;;;;;;5012586;28;20200;-76
2022/07/18 08:38:54;;;;;;;9.00;2.57;;;;;;;;;;5012351;28;20207;-77
2022/07/18 08:41:24;;;;;;;3.33;2.23;;;;;;;;;;5012232;28;20206;-76
2022/07/18 08:43:51;;;;;;;3.43;2.40;;;;;;;;;;5012448;28;20231;-76
2022/07/18 08:46:21;;;;;;;2.57;2.37;;;;;;;;;;5011535;28;20203;-76
2022/07/18 08:48:50;;;;;;;5.53;2.77;;;;;;;;;;5012784;28;20199;-76
2022/07/18 08:51:17;;;;;;;6.93;2.50;;;;;;;;;;5011129;28;20210;-76
2022/07/18 08:53:44;;;;;;;5.67;2.40;;;;;;;;;;5012627;28;20265;-77
2022/07/18 08:56:11;;;;;;;10.33;2.30;;;;;;;;;;5011869;28;20206;-77
2022/07/18 08:58:38;;;;;;;4.07;2.57;;;;;;;;;;5011794;28;20199;-76
2022/07/18 09:01:05;;;;;;;4.90;2.53;;;;;;;;;;5011783;28;20681;-76
2022/07/18 09:03:32;;;;;;;5.43;2.97;;;;;;;;;;5011935;28;20227;-77
2022/07/18 09:06:08;;;;;;;3.43;2.50;;;;;;;;;;5012043;28;20188;-78
2022/07/18 09:08:35;;;;;;;7.50;2.30;;;;;;;;;;5012148;28;20226;-76
2022/07/18 09:11:04;;;;;;;2.87;2.47;;;;;;;;;;5011316;28;20213;-76
2022/07/18 09:13:37;;;;;;;2.53;2.33;;;;;;;;;;5011737;28;20199;-76
2022/07/18 09:16:07;;;;;;;4.20;2.43;;;;;;;;;;5011642;28;20195;-76
2022/07/18 09:18:34;;;;;;;3.60;2.42;;;;;;;;;;5011583;28;20204;-76
2022/07/18 09:21:03;;;;;;;2.40;2.20;;;;;;;;;;5011554;28;20731;-75
2022/07/18 09:23:32;;;;;;;4.27;2.57;;;;;;;;;;5011547;28;20219;-76
2022/07/18 09:26:00;;;;;;;4.07;2.70;;;;;;;;;;5011277;28;20293;-76
2022/07/18 09:28:27;;;;;;;3.50;2.30;;;;;;;;;;5011410;28;20241;-76
2022/07/18 09:30:54;;;;;;;3.63;2.28;;;;;;;;;;5011616;28;20202;-75
2022/07/18 09:33:21;;;;;;;2.15;2.00;;;;;;;;;;5011408;28;20199;-75
2022/07/18 09:35:50;;;;;;;3.90;2.33;;;;;;;;;;5011156;28;20203;-75
2022/07/18 09:38:20;;;;;;;2.75;2.42;;;;;;;;;;5011470;28;20202;-76
2022/07/18 09:40:50;;;;;;;3.17;2.63;;;;;;;;;;5011169;28;20231;-76
2022/07/18 09:43:18;;;;;;;4.07;2.70;;;;;;;;;;5011303;28;20227;-76
2022/07/18 09:45:47;;;;;;;4.45;2.53;;;;;;;;;;5011046;28;20199;-76
2022/07/18 09:48:16;;;;;;;6.32;2.55;;;;;;;;;;5011531;28;20206;-76
2022/07/18 09:50:44;;;;;;;3.00;2.38;;;;;;;;;;5011296;28;20218;-76
2022/07/18 09:53:13;;;;;;;3.97;2.97;;;;;;;;;;5011348;28;20191;-76
2022/07/18 09:55:44;;;;;;;2.75;2.55;;;;;;;;;;5010918;28;20200;-76
2022/07/18 09:58:12;;;;;;;2.20;2.10;;;;;;;;;;5011102;28;20199;-76
2022/07/18 10:00:41;;;;;;;4.00;2.78;;;;;;;;;;5011104;28;20200;-76
2022/07/18 10:03:09;;;;;;;3.60;2.17;;;;;;;;;;5013524;28;20804;-76
2022/07/18 10:05:39;;;;;;;5.90;3.00;;;;;;;;;;5014802;28;20210;-76
2022/07/18 10:08:09;;;;;;;2.50;2.15;;;;;;;;;;5015600;28;20210;-75
2022/07/18 10:10:36;;;;;;;3.25;2.30;;;;;;;;;;5015223;28;20199;-76
2022/07/18 10:13:04;;;;;;;3.00;2.40;;;;;;;;;;5014904;28;20234;-76
2022/07/18 10:15:34;;;;;;;10.05;3.17;;;;;;;;;;5014990;28;20207;-77
2022/07/18 10:18:01;;;;;;;5.97;2.55;;;;;;;;;;5014607;28;20199;-77
2022/07/18 10:20:31;;;;;;;3.47;2.50;;;;;;;;;;5014940;28;20207;-77
2022/07/18 10:23:01;;;;;;;2.30;2.10;;;;;;;;;;5014923;28;20223;-77
2022/07/18 10:25:28;;;;;;;3.65;2.78;;;;;;;;;;5014894;28;20206;-77
2022/07/18 10:27:56;;;;;;;3.22;2.72;;;;;;;;;;5015077;28;20203;-77
2022/07/18 10:30:38;;;;;;;2.67;2.47;;;;;;;;;;5013658;28;20615;-78
2022/07/18 10:33:06;;;;;;;4.32;2.50;;;;;;;;;;5014767;28;20207;-77
2022/07/18 10:36:01;;;;;;;2.20;2.10;;;;;;;;;;5014632;28;20199;-78
2022/07/18 10:38:28;;;;;;;3.05;2.60;;;;;;;;;;5014565;28;20705;-77
2022/07/18 10:41:18;;;;;;;7.43;2.92;;;;;;;;;;5014695;28;20200;-76
2022/07/18 10:43:45;;;;;;;2.60;2.40;;;;;;;;;;4994690;28;20216;-77
2022/07/18 10:46:14;;;;;;;11.80;3.22;;;;;;;;;;5014413;28;20685;-77
2022/07/18 10:48:54;;;;;;;3.50;2.35;;;;;;;;;;5014482;28;20290;-77
2022/07/18 10:51:29;;;;;;;2.60;2.38;;;;;;;;;;5014209;28;20214;-77
2022/07/18 10:53:58;;;;;;;3.88;2.47;;;;;;;;;;5014353;28;20202;-77
2022/07/18 10:56:58;;;;;;;4.28;2.78;;;;;;;;;;5014276;28;20253;-76
2022/07/18 10:59:25;;;;;;;2.97;2.58;;;;;;;;;;5014342;28;20215;-76
2022/07/18 11:01:54;;;;;;;2.88;2.67;;;;;;;;;;5013966;28;20211;-76
2022/07/18 11:04:26;;;;;;;5.45;2.78;;;;;;;;;;5014050;28;20723;-77
2022/07/18 11:07:04;;;;;;;5.20;2.40;;;;;;;;;;5013958;28;20199;-77
2022/07/18 11:09:34;;;;;;;3.88;2.50;;;;;;;;;;5013959;28;20289;-77
2022/07/18 11:12:26;;;;;;;2.83;2.25;;;;;;;;;;5014102;28;20232;-77
2022/07/18 11:15:11;;;;;;;2.50;2.30;;;;;;;;;;5013481;28;20199;-77
2022/07/18 11:18:00;;;;;;;3.63;2.60;;;;;;;;;;5013560;28;20617;-78
2022/07/18 11:20:38;;;;;;;3.25;2.70;;;;;;;;;;5013584;28;20199;-77
2022/07/18 11:23:14;;;;;;;4.80;2.40;;;;;;;;;;5013687;28;20248;-77
2022/07/18 11:25:41;;;;;;;4.97;2.53;;;;;;;;;;5013672;28;20773;-76
2022/07/18 11:28:09;;;;;;;2.80;2.30;;;;;;;;;;5013493;28;20200;-77
2022/07/18 11:30:36;;;;;;;5.18;2.78;;;;;;;;;;5013470;28;20733;-77
2022/07/18 11:33:05;;;;;;;2.75;2.55;;;;;;;;;;5013589;28;20211;-78
2022/07/18 11:35:32;;;;;;;9.50;2.88;;;;;;;;;;5013637;28;20629;-77
2022/07/18 11:38:05;;;;;;;4.45;2.30;;;;;;;;;;5013523;28;20203;-77
2022/07/18 11:40:31;;;;;;;2.42;2.22;;;;;;;;;;5013320;28;20266;-81
2022/07/18 11:42:58;;;;;;;4.10;2.55;;;;;;;;;;5013670;28;20285;-77
2022/07/18 11:45:25;;;;;;;4.63;2.42;;;;;;;;;;5012854;28;20214;-77
2022/07/18 11:47:53;;;;;;;3.00;2.33;;;;;;;;;;5013521;28;20199;-76
2022/07/18 11:50:35;;;;;;;4.00;2.00;;;;;;;;;;5013353;28;20573;-76
2022/07/18 11:53:02;;;;;;;3.05;2.50;;;;;;;;;;5013423;28;20640;-77
2022/07/18 11:55:36;;;;;;;4.88;2.35;;;;;;;;;;5012891;28;20669;-77
2022/07/18 11:58:09;;;;;;;3.13;2.30;;;;;;;;;;5013065;28;20207;-77
2022/07/18 12:00:36;;;;;;;2.70;2.45;;;;;;;;;;5013524;28;20207;-76
2022/07/18 12:03:11;;;;;;;2.92;2.72;;;;;;;;;;5012875;28;20305;-77
2022/07/18 12:05:41;;;;;;;4.57;2.70;;;;;;;;;;5013076;28;20554;-76
2022/07/18 12:08:27;;;;;;;3.47;2.53;;;;;;;;;;5012783;28;20191;-77
2022/07/18 12:11:08;;;;;;;3.17;2.53;;;;;;;;;;5012714;28;20202;-76
2022/07/18 12:13:54;;;;;;;6.88;2.42;;;;;;;;;;5013011;28;20207;-77
2022/07/18 12:16:36;;;;;;;2.80;2.50;;;;;;;;;;5012516;28;20203;-78
2022/07/18 12:19:10;;;;;;;4.97;2.88;;;;;;;;;;5012599;28;20195;-76
2022/07/18 12:21:46;;;;;;;2.70;2.50;;;;;;;;;;5012495;28;20233;-78
2022/07/18 12:24:35;;;;;;;2.33;2.13;;;;;;;;;;5012729;28;20233;-75
2022/07/18 12:27:20;;;;;;;2.50;2.30;;;;;;;;;;5005424;28;20202;-78
2022/07/18 12:30:02;;;;;;;3.88;2.92;;;;;;;;;;5012411;28;20206;-78
2022/07/18 12:32:30;;;;;;;2.97;2.78;;;;;;;;;;5012505;28;20196;-78
2022/07/18 12:34:58;;;;;;;3.58;2.67;;;;;;;;;;5012148;28;20207;-79
2022/07/18 12:37:27;;;;;;;4.97;2.60;;;;;;;;;;5012544;28;20214;-76
2022/07/18 12:39:58;;;;;;;5.75;2.60;;;;;;;;;;5012465;28;20203;-75
2022/07/18 12:42:29;;;;;;;3.47;2.78;;;;;;;;;;5012469;28;20191;-75
2022/07/18 12:44:56;;;;;;;3.65;2.92;;;;;;;;;;5012309;28;20769;-78
2022/07/18 12:47:23;;;;;;;3.53;3.08;;;;;;;;;;5011884;28;20677;-78
2022/07/18 12:49:50;;;;;;;2.97;2.67;;;;;;;;;;5012151;28;20199;-76
2022/07/18 12:52:18;;;;;;;6.20;2.65;;;;;;;;;;5011947;28;20204;-76
2022/07/18 12:54:46;;;;;;;3.10;2.80;;;;;;;;;;5011931;28;20732;-77
2022/07/18 12:57:13;;;;;;;3.97;2.50;;;;;;;;;;5012140;28;20676;-77
2022/07/18 12:59:40;;;;;;;7.05;3.03;;;;;;;;;;5011990;28;20207;-77
2022/07/18 13:02:07;;;;;;;2.60;2.40;;;;;;;;;;5012236;28;20250;-76
2022/07/18 13:04:34;;;;;;;2.65;2.45;;;;;;;;;;5011919;28;20223;-77
2022/07/18 13:07:00;;;;;;;2.53;2.22;;;;;;;;;;5011519;28;20203;-76
2022/07/18 13:09:27;;;;;;;3.63;2.60;;;;;;;;;;5012064;28;20265;-77
2022/07/18 13:11:55;;;;;;;5.88;2.10;;;;;;;;;;5011850;28;20227;-76
2022/07/18 13:14:22;;;;;;;4.03;2.58;;;;;;;;;;5011904;28;20253;-76
2022/07/18 13:16:49;;;;;;;2.13;1.92;;;;;;;;;;5011529;28;20207;-77
2022/07/18 13:19:17;;;;;;;4.78;2.30;;;;;;;;;;5011380;28;20203;-77
2022/07/18 13:21:44;;;;;;;3.47;2.33;;;;;;;;;;5011810;28;20604;-77
2022/07/18 13:24:11;;;;;;;2.55;2.35;;;;;;;;;;5011857;28;20223;-77
2022/07/18 13:26:38;;;;;;;4.88;3.17;;;;;;;;;;5011266;28;20199;-77
2022/07/18 13:29:07;;;;;;;2.97;2.53;;;;;;;;;;5011566;28;20207;-77
2022/07/18 13:31:33;;;;;;;3.35;2.70;;;;;;;;;;5011257;28;20264;-77
2022/07/18 13:34:00;;;;;;;3.55;2.72;;;;;;;;;;5011455;28;20211;-78
2022/07/18 13:36:27;;;;;;;2.60;2.40;;;;;;;;;;4993544;28;20207;-77
2022/07/18 13:38:55;;;;;;;2.60;2.40;;;;;;;;;;5011257;28;20203;-77
2022/07/18 13:41:22;;;;;;;2.72;2.55;;;;;;;;;;5011287;28;20209;-77
2022/07/18 13:43:49;;;;;;;4.15;2.25;;;;;;;;;;5010885;28;20223;-77
2022/07/18 13:46:18;;;;;;;6.10;2.83;;;;;;;;;;5010839;28;20199;-77
2022/07/18 13:48:46;;;;;;;2.65;2.45;;;;;;;;;;5012032;28;20204;-77
2022/07/18 13:51:13;;;;;;;4.03;2.67;;;;;;;;;;5010972;28;20211;-77
2022/07/18 13:53:41;;;;;;;2.58;2.28;;;;;;;;;;5011467;28;20203;-77
2022/07/18 13:56:08;;;;;;;4.85;2.58;;;;;;;;;;5011374;28;20199;-77
2022/07/18 13:58:35;;;;;;;4.20;2.20;;;;;;;;;;5011334;28;20577;-76
2022/07/18 14:01:01;;;;;;;2.97;2.77;;;;;;;;;;5011262;28;20196;-76
2022/07/18 14:03:30;;;;;;;6.90;2.93;;;;;;;;;;5010812;28;20285;-78
2022/07/18 14:05:56;;;;;;;5.43;2.87;;;;;;;;;;5010901;28;20677;-77
2022/07/18 14:08:24;;;;;;;7.93;2.90;;;;;;;;;;5011264;28;20235;-77
2022/07/18 14:10:50;;;;;;;6.43;2.67;;;;;;;;;;5010583;28;20211;-78
2022/07/18 14:13:17;;;;;;;3.83;2.53;;;;;;;;;;5010991;28;20203;-78
2022/07/18 14:15:44;;;;;;;7.03;2.93;;;;;;;;;;5010734;28;20270;-77
2022/07/18 14:18:13;;;;;;;2.77;2.57;;;;;;;;;;5010830;28;20574;-77
2022/07/18 14:20:41;;;;;;;6.40;2.43;;;;;;;;;;5010868;28;20210;-77
2022/07/18 14:23:08;;;;;;;2.57;2.37;;;;;;;;;;5009528;28;20274;-78
2022/07/18 14:25:35;;;;;;;9.47;2.63;;;;;;;;;;5012315;28;20203;-77
2022/07/18 14:28:02;;;;;;;6.93;2.60;;;;;;;;;;5010251;28;20214;-77
2022/07/18 14:30:29;;;;;;;3.80;2.33;;;;;;;;;;5011837;28;20570;-82
2022/07/18 14:32:56;;;;;;;4.20;2.47;;;;;;;;;;5011432;28;20199;-77
2022/07/18 14:35:23;;;;;;;7.00;2.40;;;;;;;;;;4994470;28;20206;-78
2022/07/18 14:37:51;;;;;;;3.67;2.57;;;;;;;;;;4993955;28;20554;-78
2022/07/18 14:40:18;;;;;;;4.83;2.60;;;;;;;;;;5002560;28;20206;-78
2022/07/18 14:42:45;;;;;;;5.10;2.20;;;;;;;;;;5013445;28;20202;-78
2022/07/18 14:45:13;;;;;;;4.23;2.17;;;;;;;;;;5013366;28;20296;-78
2022/07/18 14:47:41;;;;;;;4.03;2.30;;;;;;;;;;5013726;28;20249;-78
2022/07/18 14:50:09;;;;;;;2.43;1.90;;;;;;;;;;5033560;28;20203;-78
2022/07/18 14:52:36;;;;;;;5.93;2.90;;;;;;;;;;5014872;28;20199;-78